sensor_id;sensor_type;location;lat;lon;timestamp;temperature;humidity
56123;DHT22;42426;46.104;19.656;2023-03-01T08:23:29;154.10;2252.80
56123;DHT22;42426;46.104;19.656;2023-03-01T08:29:17;154.00;2252.80
56123;DHT22;42426;46.104;19.656;2023-03-01T08:35:05;154.10;2252.80
56123;DHT22;42426;46.104;19.656;2023-03-01T08:40:52;154.30;2252.80
56123;DHT22;42426;46.104;19.656;2023-03-01T08:43:18;154.20;2252.80
56123;DHT22;42426;46.104;19.656;2023-03-01T08:45:44;154.30;2252.80
56123;DHT22;42426;46.104;19.656;2023-03-01T08:48:10;154.40;2252.80
56123;DHT22;42426;46.104;19.656;2023-03-01T08:50:35;154.40;2252.80
56123;DHT22;42426;46.104;19.656;2023-03-01T08:55:27;179.30;2252.80
56123;DHT22;42426;46.104;19.656;2023-03-01T08:57:53;179.20;2252.80
56123;DHT22;42426;46.104;19.656;2023-03-01T09:00:19;179.30;2252.80
56123;DHT22;42426;46.104;19.656;2023-03-01T09:02:45;179.30;2252.80
56123;DHT22;42426;46.104;19.656;2023-03-01T09:05:10;179.40;2252.80
56123;DHT22;42426;46.104;19.656;2023-03-01T09:07:38;179.50;2252.80
56123;DHT22;42426;46.104;19.656;2023-03-01T09:10:04;179.50;2252.80
56123;DHT22;42426;46.104;19.656;2023-03-01T09:12:30;179.60;2252.80
56123;DHT22;42426;46.104;19.656;2023-03-01T09:14:56;179.60;2252.80
56123;DHT22;42426;46.104;19.656;2023-03-01T09:17:21;179.70;2252.80
56123;DHT22;42426;46.104;19.656;2023-03-01T09:19:47;179.70;2252.80
56123;DHT22;42426;46.104;19.656;2023-03-01T09:22:13;179.70;2252.80
56123;DHT22;42426;46.104;19.656;2023-03-01T09:24:39;179.70;2252.80
56123;DHT22;42426;46.104;19.656;2023-03-01T09:27:06;179.70;2252.80
56123;DHT22;42426;46.104;19.656;2023-03-01T09:29:37;179.70;2252.80
56123;DHT22;42426;46.104;19.656;2023-03-01T09:32:03;179.70;2252.80
56123;DHT22;42426;46.104;19.656;2023-03-01T09:34:29;179.70;2252.80
56123;DHT22;42426;46.104;19.656;2023-03-01T09:36:54;179.70;2252.80
56123;DHT22;42426;46.104;19.656;2023-03-01T09:39:22;179.70;2252.80
56123;DHT22;42426;46.104;19.656;2023-03-01T09:42:02;179.70;2252.80
56123;DHT22;42426;46.104;19.656;2023-03-01T09:46:59;179.70;2252.80
56123;DHT22;42426;46.104;19.656;2023-03-01T09:49:36;179.70;2252.80
56123;DHT22;42426;46.104;19.656;2023-03-01T09:54:54;179.70;2252.80
56123;DHT22;42426;46.104;19.656;2023-03-01T10:00:47;179.70;2252.80
56123;DHT22;42426;46.104;19.656;2023-03-01T10:07:12;179.70;2252.80
56123;DHT22;42426;46.104;19.656;2023-03-01T10:09:37;179.70;2252.80
56123;DHT22;42426;46.104;19.656;2023-03-01T10:12:18;179.70;2252.80
56123;DHT22;42426;46.104;19.656;2023-03-01T10:17:51;179.70;2252.80
56123;DHT22;42426;46.104;19.656;2023-03-01T10:20:26;179.80;2252.80
56123;DHT22;42426;46.104;19.656;2023-03-01T10:22:54;179.80;2252.80
56123;DHT22;42426;46.104;19.656;2023-03-01T10:26:00;179.90;2252.80
56123;DHT22;42426;46.104;19.656;2023-03-01T10:31:25;179.90;2252.80
56123;DHT22;42426;46.104;19.656;2023-03-01T10:33:55;179.90;2252.80
56123;DHT22;42426;46.104;19.656;2023-03-01T10:36:23;180.00;2252.80
56123;DHT22;42426;46.104;19.656;2023-03-01T10:38:54;180.00;2252.80
56123;DHT22;42426;46.104;19.656;2023-03-01T10:41:23;180.00;2252.80
56123;DHT22;42426;46.104;19.656;2023-03-01T10:43:53;180.10;2252.80
56123;DHT22;42426;46.104;19.656;2023-03-01T10:46:32;180.10;2252.80
56123;DHT22;42426;46.104;19.656;2023-03-01T10:49:17;180.10;2252.80
56123;DHT22;42426;46.104;19.656;2023-03-01T10:51:46;204.80;2252.80
56123;DHT22;42426;46.104;19.656;2023-03-01T10:54:32;204.80;2252.80
56123;DHT22;42426;46.104;19.656;2023-03-01T10:57:00;204.90;2252.80
56123;DHT22;42426;46.104;19.656;2023-03-01T10:59:32;204.90;2252.80
56123;DHT22;42426;46.104;19.656;2023-03-01T11:04:33;205.00;2252.80
56123;DHT22;42426;46.104;19.656;2023-03-01T11:07:00;205.10;2252.80
56123;DHT22;42426;46.104;19.656;2023-03-01T11:09:31;205.10;2252.80
56123;DHT22;42426;46.104;19.656;2023-03-01T11:12:08;205.10;2252.80
56123;DHT22;42426;46.104;19.656;2023-03-01T11:14:46;205.10;2252.80
56123;DHT22;42426;46.104;19.656;2023-03-01T11:25:01;205.40;2252.80
56123;DHT22;42426;46.104;19.656;2023-03-01T11:27:38;205.40;2252.80
56123;DHT22;42426;46.104;19.656;2023-03-01T11:30:28;205.40;2252.80
56123;DHT22;42426;46.104;19.656;2023-03-01T11:33:11;205.40;2252.80
56123;DHT22;42426;46.104;19.656;2023-03-01T11:35:45;205.40;2252.80
56123;DHT22;42426;46.104;19.656;2023-03-01T11:38:21;205.50;2252.80
56123;DHT22;42426;46.104;19.656;2023-03-01T11:41:01;205.60;2252.80
56123;DHT22;42426;46.104;19.656;2023-03-01T11:43:41;205.60;2252.80
56123;DHT22;42426;46.104;19.656;2023-03-01T12:08:10;230.70;2252.80
56123;DHT22;42426;46.104;19.656;2023-03-01T12:18:46;230.80;2252.80
56123;DHT22;42426;46.104;19.656;2023-03-01T12:24:21;230.90;2252.80
56123;DHT22;42426;46.104;19.656;2023-03-01T12:32:52;231.10;2252.80
56123;DHT22;42426;46.104;19.656;2023-03-01T12:38:33;231.20;2252.80
56123;DHT22;42426;46.104;19.656;2023-03-01T12:47:23;231.30;2252.80
56123;DHT22;42426;46.104;19.656;2023-03-01T12:49:56;256.00;2252.80
56123;DHT22;42426;46.104;19.656;2023-03-01T12:54:53;256.20;2252.80
56123;DHT22;42426;46.104;19.656;2023-03-01T12:57:33;256.30;2252.80
56123;DHT22;42426;46.104;19.656;2023-03-01T13:00:31;256.30;2252.80
56123;DHT22;42426;46.104;19.656;2023-03-01T13:06:20;256.50;2252.80
56123;DHT22;42426;46.104;19.656;2023-03-01T13:11:22;281.60;2252.80
56123;DHT22;42426;46.104;19.656;2023-03-01T13:13:48;256.80;2252.80
56123;DHT22;42426;46.104;19.656;2023-03-01T13:19:17;256.90;2252.80
56123;DHT22;42426;46.104;19.656;2023-03-01T13:21:45;256.90;2252.80
56123;DHT22;42426;46.104;19.656;2023-03-01T13:29:53;256.90;2252.80
56123;DHT22;42426;46.104;19.656;2023-03-01T13:32:26;256.90;2252.80
56123;DHT22;42426;46.104;19.656;2023-03-01T13:37:37;281.60;2278.40
56123;DHT22;42426;46.104;19.656;2023-03-01T13:42:54;256.90;2252.80
56123;DHT22;42426;46.104;19.656;2023-03-01T13:45:39;281.60;2278.40
56123;DHT22;42426;46.104;19.656;2023-03-01T13:48:21;281.60;2278.40
56123;DHT22;42426;46.104;19.656;2023-03-01T13:50:53;281.60;2278.40
56123;DHT22;42426;46.104;19.656;2023-03-01T13:53:23;281.60;2252.80
56123;DHT22;42426;46.104;19.656;2023-03-01T13:55:55;256.90;2252.80
56123;DHT22;42426;46.104;19.656;2023-03-01T13:58:31;256.90;2252.80
56123;DHT22;42426;46.104;19.656;2023-03-01T14:01:05;256.90;2252.80
56123;DHT22;42426;46.104;19.656;2023-03-01T14:03:33;256.90;2252.80
56123;DHT22;42426;46.104;19.656;2023-03-01T14:06:14;256.90;2252.80
56123;DHT22;42426;46.104;19.656;2023-03-01T14:08:41;256.90;2252.80
56123;DHT22;42426;46.104;19.656;2023-03-01T14:16:38;256.90;2252.80
56123;DHT22;42426;46.104;19.656;2023-03-01T14:19:29;256.90;2252.80
56123;DHT22;42426;46.104;19.656;2023-03-01T14:24:31;256.90;2252.80
56123;DHT22;42426;46.104;19.656;2023-03-01T14:27:01;281.60;2278.40
56123;DHT22;42426;46.104;19.656;2023-03-01T14:29:38;281.70;2252.80
56123;DHT22;42426;46.104;19.656;2023-03-01T14:32:26;281.60;2278.40
56123;DHT22;42426;46.104;19.656;2023-03-01T14:34:52;281.70;2252.80
56123;DHT22;42426;46.104;19.656;2023-03-01T14:39:44;281.60;2278.40
56123;DHT22;42426;46.104;19.656;2023-03-01T14:42:10;281.60;2278.40
56123;DHT22;42426;46.104;19.656;2023-03-01T14:44:37;281.60;2278.40
56123;DHT22;42426;46.104;19.656;2023-03-01T14:47:03;281.60;2278.40
56123;DHT22;42426;46.104;19.656;2023-03-01T14:49:31;256.90;2252.80
56123;DHT22;42426;46.104;19.656;2023-03-01T14:52:06;256.90;2252.80
56123;DHT22;42426;46.104;19.656;2023-03-01T14:54:44;256.90;2252.80
56123;DHT22;42426;46.104;19.656;2023-03-01T14:57:22;256.90;2252.80
56123;DHT22;42426;46.104;19.656;2023-03-01T14:59:49;256.90;2252.80
56123;DHT22;42426;46.104;19.656;2023-03-01T15:02:19;256.90;2252.80
56123;DHT22;42426;46.104;19.656;2023-03-01T15:04:48;256.80;2252.80
56123;DHT22;42426;46.104;19.656;2023-03-01T15:07:14;256.80;2252.80
56123;DHT22;42426;46.104;19.656;2023-03-01T15:09:40;256.80;2252.80
56123;DHT22;42426;46.104;19.656;2023-03-01T15:12:42;256.80;2252.80
56123;DHT22;42426;46.104;19.656;2023-03-01T15:15:32;256.80;2252.80
56123;DHT22;42426;46.104;19.656;2023-03-01T15:18:13;256.80;2252.80
56123;DHT22;42426;46.104;19.656;2023-03-01T15:20:39;256.80;2252.80
56123;DHT22;42426;46.104;19.656;2023-03-01T15:23:05;256.80;2252.80
56123;DHT22;42426;46.104;19.656;2023-03-01T15:25:44;256.80;2252.80
56123;DHT22;42426;46.104;19.656;2023-03-01T15:28:19;256.70;2252.80
56123;DHT22;42426;46.104;19.656;2023-03-01T15:30:58;256.70;2252.80
56123;DHT22;42426;46.104;19.656;2023-03-01T15:35:59;256.70;2252.80
56123;DHT22;42426;46.104;19.656;2023-03-01T15:41:31;256.70;2252.80
56123;DHT22;42426;46.104;19.656;2023-03-01T15:44:17;256.70;2252.80
56123;DHT22;42426;46.104;19.656;2023-03-01T15:46:47;256.60;2252.80
56123;DHT22;42426;46.104;19.656;2023-03-01T15:49:36;256.60;2252.80
56123;DHT22;42426;46.104;19.656;2023-03-01T15:52:03;256.50;2252.80
56123;DHT22;42426;46.104;19.656;2023-03-01T15:54:29;256.50;2252.80
56123;DHT22;42426;46.104;19.656;2023-03-01T15:56:55;256.50;2252.80
56123;DHT22;42426;46.104;19.656;2023-03-01T15:59:21;256.50;2252.80
56123;DHT22;42426;46.104;19.656;2023-03-01T16:01:48;256.50;2252.80
56123;DHT22;42426;46.104;19.656;2023-03-01T16:04:18;256.50;2252.80
56123;DHT22;42426;46.104;19.656;2023-03-01T16:06:49;256.50;2252.80
56123;DHT22;42426;46.104;19.656;2023-03-01T16:09:20;256.50;2252.80
56123;DHT22;42426;46.104;19.656;2023-03-01T16:11:47;256.40;2252.80
56123;DHT22;42426;46.104;19.656;2023-03-01T16:14:13;256.30;2252.80
56123;DHT22;42426;46.104;19.656;2023-03-01T16:16:40;256.30;2252.80
56123;DHT22;42426;46.104;19.656;2023-03-01T16:19:05;256.30;2252.80
56123;DHT22;42426;46.104;19.656;2023-03-01T16:21:31;256.30;2252.80
56123;DHT22;42426;46.104;19.656;2023-03-01T16:23:57;256.20;2252.80
56123;DHT22;42426;46.104;19.656;2023-03-01T16:26:22;256.20;2252.80
56123;DHT22;42426;46.104;19.656;2023-03-01T16:28:48;256.20;2252.80
56123;DHT22;42426;46.104;19.656;2023-03-01T16:31:19;256.20;2252.80
56123;DHT22;42426;46.104;19.656;2023-03-01T16:33:45;256.10;2252.80
56123;DHT22;42426;46.104;19.656;2023-03-01T16:36:16;256.10;2252.80
56123;DHT22;42426;46.104;19.656;2023-03-01T16:38:43;256.00;2252.80
56123;DHT22;42426;46.104;19.656;2023-03-01T16:41:14;256.00;2252.80
56123;DHT22;42426;46.104;19.656;2023-03-01T16:43:40;256.00;2252.80
56123;DHT22;42426;46.104;19.656;2023-03-01T16:46:20;231.30;2252.80
56123;DHT22;42426;46.104;19.656;2023-03-01T16:48:46;231.30;2252.80
56123;DHT22;42426;46.104;19.656;2023-03-01T16:51:12;231.20;2252.80
56123;DHT22;42426;46.104;19.656;2023-03-01T16:53:38;231.10;2252.80
56123;DHT22;42426;46.104;19.656;2023-03-01T16:56:06;231.00;2252.80
56123;DHT22;42426;46.104;19.656;2023-03-01T16:58:34;231.00;2252.80
56123;DHT22;42426;46.104;19.656;2023-03-01T17:01:08;230.90;2252.80
56123;DHT22;42426;46.104;19.656;2023-03-01T17:03:36;230.80;2252.80
56123;DHT22;42426;46.104;19.656;2023-03-01T17:06:06;230.70;2252.80
56123;DHT22;42426;46.104;19.656;2023-03-01T17:08:32;230.70;2252.80
56123;DHT22;42426;46.104;19.656;2023-03-01T17:11:09;230.70;2252.80
56123;DHT22;42426;46.104;19.656;2023-03-01T17:13:36;230.70;2252.80
56123;DHT22;42426;46.104;19.656;2023-03-01T17:16:07;230.60;2252.80
56123;DHT22;42426;46.104;19.656;2023-03-01T17:18:33;230.60;2252.80
56123;DHT22;42426;46.104;19.656;2023-03-01T17:21:00;230.50;2252.80
56123;DHT22;42426;46.104;19.656;2023-03-01T17:23:27;230.50;2252.80
56123;DHT22;42426;46.104;19.656;2023-03-01T17:25:54;230.50;2252.80
56123;DHT22;42426;46.104;19.656;2023-03-01T17:28:22;230.40;2252.80
56123;DHT22;42426;46.104;19.656;2023-03-01T17:30:48;230.40;2252.80
56123;DHT22;42426;46.104;19.656;2023-03-01T17:33:16;205.70;2252.80
56123;DHT22;42426;46.104;19.656;2023-03-01T17:35:42;205.60;2252.80
56123;DHT22;42426;46.104;19.656;2023-03-01T17:38:10;205.60;2252.80
56123;DHT22;42426;46.104;19.656;2023-03-01T17:40:36;205.60;2252.80
56123;DHT22;42426;46.104;19.656;2023-03-01T17:43:04;205.50;2252.80
56123;DHT22;42426;46.104;19.656;2023-03-01T17:45:30;205.50;2252.80
56123;DHT22;42426;46.104;19.656;2023-03-01T17:47:55;205.50;2252.80
56123;DHT22;42426;46.104;19.656;2023-03-01T17:50:21;205.40;2252.80
56123;DHT22;42426;46.104;19.656;2023-03-01T17:52:47;205.40;2252.80
56123;DHT22;42426;46.104;19.656;2023-03-01T17:55:14;205.40;2252.80
56123;DHT22;42426;46.104;19.656;2023-03-01T17:57:40;205.40;2252.80
56123;DHT22;42426;46.104;19.656;2023-03-01T18:00:11;205.30;2252.80
56123;DHT22;42426;46.104;19.656;2023-03-01T18:02:37;205.30;2252.80
56123;DHT22;42426;46.104;19.656;2023-03-01T18:05:03;205.30;2252.80
56123;DHT22;42426;46.104;19.656;2023-03-01T18:07:29;205.20;2252.80
56123;DHT22;42426;46.104;19.656;2023-03-01T18:09:55;205.20;2252.80
56123;DHT22;42426;46.104;19.656;2023-03-01T18:44:12;205.50;2252.80
56123;DHT22;42426;46.104;19.656;2023-03-01T18:46:38;205.20;2252.80
56123;DHT22;42426;46.104;19.656;2023-03-01T18:49:05;205.20;2252.80
56123;DHT22;42426;46.104;19.656;2023-03-01T18:51:31;205.20;2252.80
56123;DHT22;42426;46.104;19.656;2023-03-01T18:54:00;205.20;2252.80
56123;DHT22;42426;46.104;19.656;2023-03-01T18:56:28;205.30;2252.80
56123;DHT22;42426;46.104;19.656;2023-03-01T18:58:54;205.30;2252.80
56123;DHT22;42426;46.104;19.656;2023-03-01T19:01:25;205.40;2252.80
56123;DHT22;42426;46.104;19.656;2023-03-01T19:03:51;205.40;2252.80
56123;DHT22;42426;46.104;19.656;2023-03-01T19:06:18;205.40;2252.80
56123;DHT22;42426;46.104;19.656;2023-03-01T19:08:45;205.40;2252.80
56123;DHT22;42426;46.104;19.656;2023-03-01T19:11:12;205.40;2252.80
56123;DHT22;42426;46.104;19.656;2023-03-01T19:13:39;205.40;2252.80
56123;DHT22;42426;46.104;19.656;2023-03-01T19:16:07;205.50;2252.80
56123;DHT22;42426;46.104;19.656;2023-03-01T19:18:34;205.40;2252.80
56123;DHT22;42426;46.104;19.656;2023-03-01T19:21:03;205.40;2252.80
56123;DHT22;42426;46.104;19.656;2023-03-01T19:23:30;205.40;2252.80
56123;DHT22;42426;46.104;19.656;2023-03-01T19:26:05;205.40;2252.80
56123;DHT22;42426;46.104;19.656;2023-03-01T19:28:31;205.40;2252.80
56123;DHT22;42426;46.104;19.656;2023-03-01T19:30:59;205.50;2252.80
56123;DHT22;42426;46.104;19.656;2023-03-01T19:33:26;205.40;2252.80
56123;DHT22;42426;46.104;19.656;2023-03-01T19:35:51;205.50;2252.80
56123;DHT22;42426;46.104;19.656;2023-03-01T19:38:17;205.50;2252.80
56123;DHT22;42426;46.104;19.656;2023-03-01T19:40:43;205.50;2252.80
56123;DHT22;42426;46.104;19.656;2023-03-01T19:43:08;205.50;2252.80
56123;DHT22;42426;46.104;19.656;2023-03-01T19:45:35;205.50;2252.80
56123;DHT22;42426;46.104;19.656;2023-03-01T19:48:00;205.50;2252.80
56123;DHT22;42426;46.104;19.656;2023-03-01T19:50:26;205.50;2252.80
56123;DHT22;42426;46.104;19.656;2023-03-01T19:52:52;205.50;2252.80
56123;DHT22;42426;46.104;19.656;2023-03-01T19:55:17;205.50;2252.80
56123;DHT22;42426;46.104;19.656;2023-03-01T19:57:43;205.50;2252.80
56123;DHT22;42426;46.104;19.656;2023-03-01T20:00:09;205.50;2252.80
56123;DHT22;42426;46.104;19.656;2023-03-01T20:02:35;205.50;2252.80
56123;DHT22;42426;46.104;19.656;2023-03-01T20:05:02;205.40;2252.80
56123;DHT22;42426;46.104;19.656;2023-03-01T20:07:27;205.40;2252.80
56123;DHT22;42426;46.104;19.656;2023-03-01T20:09:53;205.40;2252.80
56123;DHT22;42426;46.104;19.656;2023-03-01T20:12:19;205.50;2252.80
56123;DHT22;42426;46.104;19.656;2023-03-01T20:14:46;205.50;2252.80
56123;DHT22;42426;46.104;19.656;2023-03-01T20:17:13;205.50;2252.80
56123;DHT22;42426;46.104;19.656;2023-03-01T20:19:38;205.40;2252.80
56123;DHT22;42426;46.104;19.656;2023-03-01T20:22:04;205.40;2252.80
56123;DHT22;42426;46.104;19.656;2023-03-01T20:24:30;205.40;2252.80
56123;DHT22;42426;46.104;19.656;2023-03-01T20:26:57;205.40;2252.80
56123;DHT22;42426;46.104;19.656;2023-03-01T20:29:23;205.40;2252.80
56123;DHT22;42426;46.104;19.656;2023-03-01T20:31:48;205.40;2252.80
56123;DHT22;42426;46.104;19.656;2023-03-01T20:34:14;205.40;2252.80
56123;DHT22;42426;46.104;19.656;2023-03-01T20:36:40;205.40;2252.80
56123;DHT22;42426;46.104;19.656;2023-03-01T20:39:07;205.40;2252.80
56123;DHT22;42426;46.104;19.656;2023-03-01T20:41:34;205.40;2252.80
56123;DHT22;42426;46.104;19.656;2023-03-01T20:43:59;205.40;2252.80
56123;DHT22;42426;46.104;19.656;2023-03-01T20:46:25;205.40;2252.80
56123;DHT22;42426;46.104;19.656;2023-03-01T20:48:54;205.40;2252.80
56123;DHT22;42426;46.104;19.656;2023-03-01T20:51:19;205.40;2252.80
56123;DHT22;42426;46.104;19.656;2023-03-01T20:53:45;205.40;2252.80
56123;DHT22;42426;46.104;19.656;2023-03-01T20:56:14;205.40;2252.80
56123;DHT22;42426;46.104;19.656;2023-03-01T20:58:41;205.40;2252.80
56123;DHT22;42426;46.104;19.656;2023-03-01T21:01:08;205.40;2252.80
56123;DHT22;42426;46.104;19.656;2023-03-01T21:03:34;205.40;2252.80
56123;DHT22;42426;46.104;19.656;2023-03-01T21:06:02;205.40;2252.80
56123;DHT22;42426;46.104;19.656;2023-03-01T21:08:29;205.40;2252.80
56123;DHT22;42426;46.104;19.656;2023-03-01T21:10:55;205.30;2252.80
56123;DHT22;42426;46.104;19.656;2023-03-01T21:13:22;205.30;2252.80
56123;DHT22;42426;46.104;19.656;2023-03-01T21:15:55;205.30;2252.80
56123;DHT22;42426;46.104;19.656;2023-03-01T21:18:21;205.30;2252.80
56123;DHT22;42426;46.104;19.656;2023-03-01T21:20:47;205.30;2252.80
56123;DHT22;42426;46.104;19.656;2023-03-01T21:23:14;205.50;2252.80
56123;DHT22;42426;46.104;19.656;2023-03-01T21:25:39;205.30;2252.80
56123;DHT22;42426;46.104;19.656;2023-03-01T21:28:05;205.30;2252.80
56123;DHT22;42426;46.104;19.656;2023-03-01T21:30:33;205.20;2252.80
56123;DHT22;42426;46.104;19.656;2023-03-01T21:32:59;205.20;2252.80
56123;DHT22;42426;46.104;19.656;2023-03-01T21:35:25;205.20;2252.80
56123;DHT22;42426;46.104;19.656;2023-03-01T21:37:50;205.20;2252.80
56123;DHT22;42426;46.104;19.656;2023-03-01T21:40:16;205.10;2252.80
56123;DHT22;42426;46.104;19.656;2023-03-01T21:42:41;205.10;2252.80
56123;DHT22;42426;46.104;19.656;2023-03-01T21:45:09;205.10;2252.80
56123;DHT22;42426;46.104;19.656;2023-03-01T21:47:35;205.10;2252.80
56123;DHT22;42426;46.104;19.656;2023-03-01T21:50:00;205.10;2252.80
56123;DHT22;42426;46.104;19.656;2023-03-01T21:52:26;205.10;2252.80
56123;DHT22;42426;46.104;19.656;2023-03-01T21:54:52;205.10;2252.80
56123;DHT22;42426;46.104;19.656;2023-03-01T21:57:19;205.10;2252.80
56123;DHT22;42426;46.104;19.656;2023-03-01T21:59:45;205.10;2252.80
56123;DHT22;42426;46.104;19.656;2023-03-01T22:02:11;205.10;2252.80
56123;DHT22;42426;46.104;19.656;2023-03-01T22:04:39;205.10;2252.80
56123;DHT22;42426;46.104;19.656;2023-03-01T22:07:05;205.00;2252.80
56123;DHT22;42426;46.104;19.656;2023-03-01T22:09:31;205.00;2252.80
56123;DHT22;42426;46.104;19.656;2023-03-01T22:11:59;205.00;2252.80
56123;DHT22;42426;46.104;19.656;2023-03-01T22:14:29;205.00;2252.80
56123;DHT22;42426;46.104;19.656;2023-03-01T22:16:55;205.00;2252.80
56123;DHT22;42426;46.104;19.656;2023-03-01T22:19:21;205.00;2252.80
56123;DHT22;42426;46.104;19.656;2023-03-01T22:21:49;205.00;2252.80
56123;DHT22;42426;46.104;19.656;2023-03-01T22:24:18;204.90;2252.80
56123;DHT22;42426;46.104;19.656;2023-03-01T22:26:47;204.90;2252.80
56123;DHT22;42426;46.104;19.656;2023-03-01T22:29:27;204.90;2252.80
56123;DHT22;42426;46.104;19.656;2023-03-01T22:31:54;204.90;2252.80
56123;DHT22;42426;46.104;19.656;2023-03-01T22:34:20;204.90;2252.80
56123;DHT22;42426;46.104;19.656;2023-03-01T22:36:47;204.90;2252.80
56123;DHT22;42426;46.104;19.656;2023-03-01T22:39:15;204.90;2252.80
56123;DHT22;42426;46.104;19.656;2023-03-01T22:41:42;204.90;2252.80
56123;DHT22;42426;46.104;19.656;2023-03-01T22:44:14;204.90;2252.80
56123;DHT22;42426;46.104;19.656;2023-03-01T22:46:40;204.90;2252.80
56123;DHT22;42426;46.104;19.656;2023-03-01T22:49:06;204.90;2252.80
56123;DHT22;42426;46.104;19.656;2023-03-01T22:51:35;204.90;2252.80
56123;DHT22;42426;46.104;19.656;2023-03-01T22:54:01;204.90;2252.80
56123;DHT22;42426;46.104;19.656;2023-03-01T22:56:30;204.90;2252.80
56123;DHT22;42426;46.104;19.656;2023-03-01T22:59:00;204.90;2252.80
56123;DHT22;42426;46.104;19.656;2023-03-01T23:01:27;204.80;2252.80
56123;DHT22;42426;46.104;19.656;2023-03-01T23:03:54;204.80;2252.80
56123;DHT22;42426;46.104;19.656;2023-03-01T23:06:20;204.80;2252.80
56123;DHT22;42426;46.104;19.656;2023-03-01T23:08:52;204.80;2252.80
56123;DHT22;42426;46.104;19.656;2023-03-01T23:11:19;204.80;2252.80
56123;DHT22;42426;46.104;19.656;2023-03-01T23:13:46;204.80;2252.80
56123;DHT22;42426;46.104;19.656;2023-03-01T23:16:12;204.80;2252.80
56123;DHT22;42426;46.104;19.656;2023-03-01T23:18:38;204.80;2252.80
56123;DHT22;42426;46.104;19.656;2023-03-01T23:21:12;204.80;2252.80
56123;DHT22;42426;46.104;19.656;2023-03-01T23:23:39;204.80;2252.80
56123;DHT22;42426;46.104;19.656;2023-03-01T23:26:05;180.10;2252.80
56123;DHT22;42426;46.104;19.656;2023-03-01T23:28:32;180.10;2252.80
56123;DHT22;42426;46.104;19.656;2023-03-01T23:31:00;180.10;2252.80
56123;DHT22;42426;46.104;19.656;2023-03-01T23:33:27;180.10;2252.80
56123;DHT22;42426;46.104;19.656;2023-03-01T23:35:53;180.10;2252.80
56123;DHT22;42426;46.104;19.656;2023-03-01T23:38:19;180.10;2252.80
56123;DHT22;42426;46.104;19.656;2023-03-01T23:40:46;180.10;2252.80
56123;DHT22;42426;46.104;19.656;2023-03-01T23:43:13;180.00;2252.80
56123;DHT22;42426;46.104;19.656;2023-03-01T23:45:40;180.00;2252.80
56123;DHT22;42426;46.104;19.656;2023-03-01T23:48:11;180.00;2252.80
56123;DHT22;42426;46.104;19.656;2023-03-01T23:50:39;180.00;2252.80
56123;DHT22;42426;46.104;19.656;2023-03-01T23:53:12;179.90;2252.80
56123;DHT22;42426;46.104;19.656;2023-03-01T23:55:42;179.90;2252.80
56123;DHT22;42426;46.104;19.656;2023-03-01T23:58:09;179.90;2252.80
